Darstellungsparameter: Aktuell verwendete Einstellungen:
Skalierung der Graphiken ... ?
xyx+y,   Skalierungsfaktor:      Skalierung: Modus: x, Faktor: 1
Darstellungszeitraum ... ?
Vom - - bis: - -   Zeitraum: 24.11.2011 - 30.11.2011
Min/Max/Avg-Anzeige ... ?
Zeige MMA aktuell
Zeige MMA Monat
Zeige MMA alles
Zeige --A aktuell
Zeige --A Monat
Zeige --A alles
Keine MMA-Anzeige
MMA:
Average (ber die Originaldaten)
MMA-Basis: 24.11.2011 - 30.11.2011
Quicknavigation für Darstellung... ?
Tage:      1T, 2T, 3T, 5T -1T -2T -3T -5T +1T +2T +3T +5T
Wochen: 1W, 2W, 3W -1W -2W -3W +1W +2W +3W
Monate: 1M, 3M, 6M -1M -3M -6M +1M +3M +6M
Jahre:    1J, 3J, 5J, 10J -1J -3J -5J -10J +1J +3J +5J +10J
Nutze für die Darstellung ... ?
Originaldaten oder Mittelwerte auf ...
Stundenbasis Tagesbasis Wochenbasis
Monatsbasis Jahresbasis      Datenbasis: Original-Daten
Darstellen als:
Statistik (Auto) Statistik J:M      Darstellung:
Zur Graphik,    zurück zur Übersicht aller Sensoren.
 
Tabellarische Datenbersicht: ?
 
Sensor: Nr:Datum:Temp:Abs-Feuchte:Windchill:Wind:
Aussen-T/F 1 24-11-2011 00:08:03 0.9 C 4.85 g/m*3 0.9 C 0 km/h
2 24-11-2011 00:20:03 0.7 C 4.78 g/m*3 0.7 C 0 km/h
3 24-11-2011 00:32:03 0.6 C 4.75 g/m*3 0.6 C 0 km/h
4 24-11-2011 00:44:03 0.6 C 4.75 g/m*3 0.6 C 0 km/h
5 24-11-2011 00:56:03 0.8 C 4.81 g/m*3 0.8 C 0 km/h
6 24-11-2011 01:08:03 0.8 C 4.86 g/m*3 0.8 C 0 km/h
7 24-11-2011 01:20:04 0.6 C 4.75 g/m*3 0.6 C 0 km/h
8 24-11-2011 01:32:04 0.5 C 4.71 g/m*3 0.5 C 0 km/h
9 24-11-2011 01:44:04 0.1 C 4.59 g/m*3 0.1 C 0 km/h
10 24-11-2011 01:56:04 0 C 4.55 g/m*3 0 C 0 km/h
11 24-11-2011 02:08:04 0.5 C 4.71 g/m*3 0.5 C 0 km/h
12 24-11-2011 02:20:04 0.7 C 4.83 g/m*3 0.7 C 0 km/h
13 24-11-2011 02:32:04 0.8 C 4.86 g/m*3 0.8 C 0 km/h
14 24-11-2011 02:44:04 1 C 4.88 g/m*3 1 C 0 km/h
15 24-11-2011 02:56:04 1.1 C 4.91 g/m*3 1.1 C 0 km/h
16 24-11-2011 03:08:04 1.1 C 4.91 g/m*3 1.1 C 0 km/h
17 24-11-2011 03:20:04 1.5 C 5.05 g/m*3 1.5 C 0 km/h
18 24-11-2011 03:32:04 1.5 C 5.1 g/m*3 1.5 C 0 km/h
19 24-11-2011 03:44:04 1.6 C 5.14 g/m*3 1.6 C 0 km/h
20 24-11-2011 03:56:04 1.7 C 5.17 g/m*3 1.7 C 0 km/h
21 24-11-2011 04:08:04 1.8 C 5.21 g/m*3 1.8 C 0 km/h
22 24-11-2011 04:20:04 1.9 C 5.24 g/m*3 1.9 C 0 km/h
23 24-11-2011 04:32:04 2.1 C 5.26 g/m*3 2.1 C 0 km/h
24 24-11-2011 04:44:04 2 C 5.22 g/m*3 2 C 0 km/h
25 24-11-2011 04:56:04 2.1 C 5.26 g/m*3 2.1 C 0 km/h
Sensor: Nr:Datum:Temp:Abs-Feuchte:Windchill:Wind:
Aussen-T/F 26 24-11-2011 05:08:04 2.2 C 5.29 g/m*3 2.2 C 0 km/h
27 24-11-2011 05:20:05 2.2 C 5.29 g/m*3 2.2 C 0 km/h
28 24-11-2011 05:32:05 2.2 C 5.29 g/m*3 2.2 C 0 km/h
29 24-11-2011 05:44:05 2.2 C 5.29 g/m*3 2.2 C 0 km/h
30 24-11-2011 05:56:05 2.3 C 5.33 g/m*3 2.3 C 0 km/h
31 24-11-2011 06:08:05 2.5 C 5.46 g/m*3 2.5 C 0 km/h
32 24-11-2011 06:20:05 2.6 C 5.5 g/m*3 2.6 C 0 km/h
33 24-11-2011 06:32:05 2.6 C 5.5 g/m*3 2.6 C 0 km/h
34 24-11-2011 06:44:05 2.7 C 5.54 g/m*3 2.7 C 0 km/h
35 24-11-2011 06:56:05 2.7 C 5.54 g/m*3 2.7 C 0 km/h
36 24-11-2011 07:08:02 2.8 C 5.57 g/m*3 2.8 C 0 km/h
37 24-11-2011 07:20:03 2.8 C 5.57 g/m*3 2.8 C 0 km/h
38 24-11-2011 07:32:02 2.9 C 5.61 g/m*3 2.9 C 0 km/h
39 24-11-2011 07:44:02 2.9 C 5.61 g/m*3 2.9 C 0 km/h
40 24-11-2011 07:56:02 3 C 5.59 g/m*3 3 C 0 km/h
41 24-11-2011 08:08:02 3.1 C 5.63 g/m*3 3.1 C 0 km/h
42 24-11-2011 08:20:02 3.1 C 5.63 g/m*3 3.1 C 0 km/h
43 24-11-2011 08:32:02 3.2 C 5.66 g/m*3 3.2 C 0 km/h
44 24-11-2011 08:44:02 3.3 C 5.7 g/m*3 3.3 C 0 km/h
45 24-11-2011 08:56:01 3.4 C 5.74 g/m*3 3.4 C 0 km/h
46 24-11-2011 09:08:02 3.5 C 5.78 g/m*3 3.5 C 0 km/h
47 24-11-2011 09:20:01 3.7 C 5.92 g/m*3 3.7 C 0 km/h
48 24-11-2011 09:32:01 3.8 C 5.96 g/m*3 3.8 C 0 km/h
49 24-11-2011 09:44:01 3.9 C 6 g/m*3 3.9 C 0 km/h
50 24-11-2011 09:56:01 4 C 5.98 g/m*3 4 C 0 km/h
Sensor: Nr:Datum:Temp:Abs-Feuchte:Windchill:Wind:
Aussen-T/F 51 24-11-2011 10:08:02 4.1 C 6.02 g/m*3 4.1 C 0 km/h
52 24-11-2011 10:20:01 4.3 C 6.1 g/m*3 4.3 C 0 km/h
53 24-11-2011 10:32:01 4.4 C 6.14 g/m*3 4.4 C 0 km/h
54 24-11-2011 10:44:01 4.6 C 6.22 g/m*3 4.6 C 0 km/h
55 24-11-2011 10:56:01 4.6 C 6.22 g/m*3 4.6 C 0 km/h
56 24-11-2011 11:08:02 4.4 C 6.07 g/m*3 4.4 C 0 km/h
57 24-11-2011 11:20:02 4.4 C 6.07 g/m*3 4.4 C 0 km/h
58 24-11-2011 11:32:01 4.9 C 6.28 g/m*3 4.9 C 0 km/h
59 24-11-2011 11:44:01 4.9 C 6.28 g/m*3 4.9 C 0 km/h
60 24-11-2011 11:56:02 4.8 C 6.17 g/m*3 4.8 C 0 km/h
61 24-11-2011 12:08:01 5 C 6.18 g/m*3 5 C 0 km/h
62 24-11-2011 12:20:02 5 C 6.12 g/m*3 5 C 0 km/h
63 24-11-2011 12:32:01 5 C 6.05 g/m*3 5 C 0 km/h
64 24-11-2011 12:44:01 5.3 C 6.17 g/m*3 5.3 C 0 km/h
65 24-11-2011 12:56:02 5.3 C 6.1 g/m*3 5.3 C 0 km/h
66 24-11-2011 13:08:02 5 C 5.98 g/m*3 5 C 0 km/h
67 24-11-2011 13:20:02 5.3 C 6.1 g/m*3 5.3 C 0 km/h
68 24-11-2011 13:32:02 5.4 C 6.07 g/m*3 5.4 C 0 km/h
69 24-11-2011 13:44:02 5.5 C 6.11 g/m*3 5.5 C 0 km/h
70 24-11-2011 13:56:02 5.6 C 6.15 g/m*3 5.6 C 0 km/h
71 24-11-2011 14:08:02 5.9 C 6.2 g/m*3 5.9 C 0 km/h
72 24-11-2011 14:20:01 5.9 C 6.13 g/m*3 5.9 C 0 km/h
73 24-11-2011 14:32:02 5.9 C 6.2 g/m*3 5.9 C 0 km/h
74 24-11-2011 14:44:02 5.9 C 6.2 g/m*3 5.9 C 0 km/h
75 24-11-2011 14:56:02 5.9 C 6.2 g/m*3 5.9 C 0 km/h
Sensor: Nr:Datum:Temp:Abs-Feuchte:Windchill:Wind:
Aussen-T/F 76 24-11-2011 15:08:02 5.6 C 6.08 g/m*3 5.6 C 0 km/h
77 24-11-2011 15:20:01 5.5 C 6.11 g/m*3 5.5 C 0 km/h
78 24-11-2011 15:32:02 5.2 C 5.99 g/m*3 5.2 C 0 km/h
79 24-11-2011 15:44:02 4.8 C 5.9 g/m*3 4.8 C 0 km/h
80 24-11-2011 15:56:02 4.4 C 5.75 g/m*3 4.4 C 0 km/h
81 24-11-2011 16:08:02 4.2 C 5.67 g/m*3 4.2 C 0 km/h
82 24-11-2011 16:20:01 3.9 C 5.62 g/m*3 3.9 C 0 km/h
83 24-11-2011 16:32:02 3.5 C 5.47 g/m*3 3.5 C 0 km/h
84 24-11-2011 16:44:02 3.3 C 5.4 g/m*3 3.3 C 0 km/h
85 24-11-2011 16:56:01 3.2 C 5.36 g/m*3 3.2 C 0 km/h
86 24-11-2011 17:08:02 3 C 5.35 g/m*3 3 C 0 km/h
87 24-11-2011 17:20:02 2.8 C 5.34 g/m*3 2.8 C 0 km/h
88 24-11-2011 17:32:01 2.6 C 5.27 g/m*3 2.6 C 0 km/h
89 24-11-2011 17:44:01 2.7 C 5.3 g/m*3 2.7 C 0 km/h
90 24-11-2011 17:56:02 2.4 C 5.2 g/m*3 2.4 C 0 km/h
91 24-11-2011 18:08:01 2.3 C 5.16 g/m*3 2.3 C 0 km/h
92 24-11-2011 18:20:02 2.4 C 5.25 g/m*3 2.4 C 0 km/h
93 24-11-2011 18:32:01 1.9 C 5.08 g/m*3 1.9 C 0 km/h
94 24-11-2011 18:44:01 1.5 C 4.94 g/m*3 1.5 C 0 km/h
95 24-11-2011 18:56:02 1.3 C 4.87 g/m*3 1.3 C 0 km/h
96 24-11-2011 19:08:02 1.1 C 4.81 g/m*3 1.1 C 0 km/h
97 24-11-2011 19:20:02 1.1 C 4.81 g/m*3 1.1 C 0 km/h
98 24-11-2011 19:32:02 1.1 C 4.81 g/m*3 1.1 C 0 km/h
99 24-11-2011 19:44:02 0.8 C 4.71 g/m*3 0.8 C 0 km/h
100 24-11-2011 19:56:02 0.6 C 4.65 g/m*3 0.6 C 0 km/h
Sensor: Nr:Datum:Temp:Abs-Feuchte:Windchill:Wind:
Aussen-T/F 101 24-11-2011 20:08:02 0.3 C 4.55 g/m*3 0.3 C 0 km/h
102 24-11-2011 20:20:01 0.3 C 4.55 g/m*3 0.3 C 0 km/h
103 24-11-2011 20:32:02 0.3 C 4.55 g/m*3 0.3 C 0 km/h
104 24-11-2011 20:44:03 -0.2 C 4.4 g/m*3 -0.2 C 0 km/h
105 24-11-2011 20:56:02 -0.2 C 4.4 g/m*3 -0.2 C 0 km/h
106 24-11-2011 21:08:02 0 C 4.46 g/m*3 0 C 0 km/h
107 24-11-2011 21:20:01 -0.5 C 4.26 g/m*3 -0.5 C 0 km/h
108 24-11-2011 21:32:02 -0.4 C 4.29 g/m*3 -0.4 C 0 km/h
109 24-11-2011 21:44:02 -0.9 C 4.14 g/m*3 -0.9 C 0 km/h
110 24-11-2011 21:56:02 -1 C 4.11 g/m*3 -1 C 0 km/h
111 24-11-2011 22:08:02 -1.1 C 4.13 g/m*3 -1.1 C 0 km/h
112 24-11-2011 22:21:02 -1.2 C 4.1 g/m*3 -1.2 C 0 km/h
113 24-11-2011 22:33:02 -0.8 C 4.22 g/m*3 -0.8 C 0 km/h
114 24-11-2011 22:45:02 -1.4 C 4.04 g/m*3 -1.4 C 0 km/h
115 24-11-2011 22:57:03 -1.1 C 4.13 g/m*3 -1.1 C 0 km/h
116 24-11-2011 23:09:03 -1.1 C 4.13 g/m*3 -1.1 C 0 km/h
117 24-11-2011 23:21:03 -1.5 C 3.97 g/m*3 -1.5 C 0 km/h
118 24-11-2011 23:33:03 -1.4 C 4 g/m*3 -1.4 C 0 km/h
119 24-11-2011 23:45:03 -1.4 C 4.04 g/m*3 -1.4 C 0 km/h
120 24-11-2011 23:57:03 -1.3 C 4.07 g/m*3 -1.3 C 0 km/h
121 25-11-2011 00:09:03 -1.8 C 3.89 g/m*3 -1.8 C 0 km/h
122 25-11-2011 00:21:03 -1.8 C 3.89 g/m*3 -1.8 C 0 km/h
123 25-11-2011 00:33:03 -1.7 C 3.92 g/m*3 -1.7 C 0 km/h
124 25-11-2011 00:45:03 -1.8 C 3.89 g/m*3 -1.8 C 0 km/h
125 25-11-2011 00:57:03 -2 C 3.84 g/m*3 -2 C 0 km/h
Sensor: Nr:Datum:Temp:Abs-Feuchte:Windchill:Wind:
Aussen-T/F 126 25-11-2011 01:09:03 -2 C 3.84 g/m*3 -2 C 0 km/h
127 25-11-2011 01:21:03 -1.2 C 4.1 g/m*3 -1.2 C 0 km/h
128 25-11-2011 01:33:03 -1.8 C 3.93 g/m*3 -1.8 C 0 km/h
129 25-11-2011 01:45:03 -1.9 C 3.91 g/m*3 -1.9 C 0 km/h
130 25-11-2011 01:57:03 -1.7 C 3.96 g/m*3 -1.7 C 0 km/h
131 25-11-2011 02:09:03 -2 C 3.88 g/m*3 -2 C 0 km/h
132 25-11-2011 02:21:03 -2.1 C 3.85 g/m*3 -2.1 C 0 km/h
133 25-11-2011 02:33:03 -1.1 C 4.17 g/m*3 -1.1 C 0 km/h
134 25-11-2011 02:45:03 -1.7 C 3.96 g/m*3 -1.7 C 0 km/h
135 25-11-2011 02:57:03 -1.7 C 3.96 g/m*3 -1.7 C 0 km/h
136 25-11-2011 03:09:04 -2 C 3.88 g/m*3 -2 C 0 km/h
137 25-11-2011 03:21:04 -2.5 C 3.74 g/m*3 -2.5 C 0 km/h
138 25-11-2011 03:33:04 -2.8 C 3.63 g/m*3 -2.8 C 0 km/h
139 25-11-2011 03:45:04 -2.8 C 3.63 g/m*3 -2.8 C 0 km/h
140 25-11-2011 03:57:04 -3 C 3.57 g/m*3 -3 C 0 km/h
141 25-11-2011 04:09:04 -2.8 C 3.63 g/m*3 -2.8 C 0 km/h
142 25-11-2011 04:21:04 -2.6 C 3.68 g/m*3 -2.6 C 0 km/h
143 25-11-2011 04:33:04 -2.5 C 3.7 g/m*3 -2.5 C 0 km/h
144 25-11-2011 04:45:04 -2 C 3.84 g/m*3 -2 C 0 km/h
145 25-11-2011 04:57:04 -1.9 C 3.86 g/m*3 -1.9 C 0 km/h
146 25-11-2011 05:09:04 -2.5 C 3.7 g/m*3 -2.5 C 0 km/h
147 25-11-2011 05:21:04 -2.6 C 3.68 g/m*3 -2.6 C 0 km/h
148 25-11-2011 05:33:04 -2.9 C 3.56 g/m*3 -2.9 C 0 km/h
149 25-11-2011 05:45:04 -2.3 C 3.71 g/m*3 -2.3 C 0 km/h
150 25-11-2011 05:57:04 -2.1 C 3.81 g/m*3 -2.1 C 0 km/h
Sensor: Nr:Datum:Temp:Abs-Feuchte:Windchill:Wind:
Aussen-T/F 151 25-11-2011 06:09:04 -2 C 3.84 g/m*3 -2 C 0 km/h
152 25-11-2011 06:21:04 -2.2 C 3.78 g/m*3 -2.2 C 0 km/h
153 25-11-2011 06:33:04 -1.9 C 3.86 g/m*3 -1.9 C 0 km/h
154 25-11-2011 06:45:04 -1.3 C 4.07 g/m*3 -1.3 C 0 km/h
155 25-11-2011 06:57:04 -1.3 C 4.07 g/m*3 -1.3 C 0 km/h
156 25-11-2011 07:09:04 -1.1 C 4.13 g/m*3 -1.1 C 0 km/h
157 25-11-2011 07:21:05 -1.1 C 4.13 g/m*3 -1.1 C 0 km/h
158 25-11-2011 07:33:05 -1.6 C 3.99 g/m*3 -1.6 C 0 km/h
159 25-11-2011 07:45:05 -1.6 C 3.99 g/m*3 -1.6 C 0 km/h
160 25-11-2011 07:57:05 -1.8 C 3.93 g/m*3 -1.8 C 0 km/h
161 25-11-2011 08:09:02 -1.6 C 3.99 g/m*3 -1.6 C 0 km/h
162 25-11-2011 08:21:02 -2 C 3.88 g/m*3 -2 C 0 km/h
163 25-11-2011 08:33:02 -2.1 C 3.85 g/m*3 -2.1 C 0 km/h
164 25-11-2011 08:45:02 -1.8 C 3.93 g/m*3 -1.8 C 0 km/h
165 25-11-2011 08:57:03 -1.3 C 4.07 g/m*3 -1.3 C 0 km/h
166 25-11-2011 09:09:01 -0.6 C 4.32 g/m*3 -0.6 C 0 km/h
167 25-11-2011 09:21:02 -0.3 C 4.41 g/m*3 -0.3 C 0 km/h
168 25-11-2011 09:33:02 -0.2 C 4.44 g/m*3 -0.2 C 0 km/h
169 25-11-2011 09:45:02 -0.1 C 4.47 g/m*3 -0.1 C 0 km/h
170 25-11-2011 09:57:02 0.1 C 4.54 g/m*3 0.1 C 0 km/h
171 25-11-2011 10:09:03 0.3 C 4.6 g/m*3 0.3 C 0 km/h
172 25-11-2011 10:21:02 0.4 C 4.63 g/m*3 0.4 C 0 km/h
173 25-11-2011 10:33:02 0.8 C 4.71 g/m*3 0.8 C 0 km/h
174 25-11-2011 10:45:01 0.9 C 4.74 g/m*3 0.9 C 0 km/h
175 25-11-2011 10:57:01 1.1 C 4.7 g/m*3 1.1 C 0 km/h
Sensor: Nr:Datum:Temp:Abs-Feuchte:Windchill:Wind:
Aussen-T/F 176 25-11-2011 11:09:02 0.9 C 4.64 g/m*3 0.9 C 0 km/h
177 25-11-2011 11:21:01 1.3 C 4.72 g/m*3 1.3 C 0 km/h
178 25-11-2011 11:33:01 1.4 C 4.69 g/m*3 1.4 C 0 km/h
179 25-11-2011 11:45:01 1.1 C 4.6 g/m*3 1.1 C 0 km/h
180 25-11-2011 11:57:01 0.9 C 4.54 g/m*3 0.9 C 0 km/h
181 25-11-2011 12:09:02 1.3 C 4.66 g/m*3 1.3 C 0 km/h
182 25-11-2011 12:21:02 1.6 C 4.76 g/m*3 1.6 C 0 km/h
183 25-11-2011 12:33:01 1.7 C 4.74 g/m*3 1.7 C 0 km/h
184 25-11-2011 12:45:02 2.2 C 4.84 g/m*3 2.2 C 0 km/h
185 25-11-2011 12:57:02 2.4 C 4.8 g/m*3 2.4 C 0 km/h
186 25-11-2011 13:09:01 2.3 C 4.71 g/m*3 2.3 C 0 km/h
187 25-11-2011 13:21:02 2.6 C 4.75 g/m*3 2.6 C 0 km/h
188 25-11-2011 13:33:01 2.8 C 4.75 g/m*3 2.8 C 0 km/h
189 25-11-2011 13:45:02 3.4 C 4.76 g/m*3 3.4 C 0 km/h
190 25-11-2011 13:57:02 3.7 C 4.74 g/m*3 3.7 C 0 km/h
191 25-11-2011 14:09:02 4.2 C 4.7 g/m*3 4.2 C 0 km/h
192 25-11-2011 14:21:02 4.6 C 4.7 g/m*3 4.6 C 0 km/h
193 25-11-2011 14:33:03 4.6 C 4.7 g/m*3 4.6 C 0 km/h
194 25-11-2011 14:45:02 3.7 C 4.61 g/m*3 3.7 C 0 km/h
195 25-11-2011 14:57:03 3.6 C 4.64 g/m*3 3.6 C 0 km/h
196 25-11-2011 15:09:01 3.5 C 4.67 g/m*3 3.5 C 0 km/h
197 25-11-2011 15:21:02 3.7 C 4.8 g/m*3 3.7 C 0 km/h
198 25-11-2011 15:33:02 3.5 C 4.73 g/m*3 3.5 C 0 km/h
199 25-11-2011 15:45:02 3.3 C 4.73 g/m*3 3.3 C 0 km/h
200 25-11-2011 15:57:02 3.3 C 4.79 g/m*3 3.3 C 0 km/h
Sensor: Nr:Datum:Temp:Abs-Feuchte:Windchill:Wind:
Aussen-T/F 201 25-11-2011 16:09:03 3.2 C 4.76 g/m*3 3.2 C 0 km/h
202 25-11-2011 16:21:02 3.3 C 4.85 g/m*3 3.3 C 0 km/h
203 25-11-2011 16:33:02 3.2 C 4.82 g/m*3 3.2 C 0 km/h
204 25-11-2011 16:45:01 3.1 C 4.85 g/m*3 3.1 C 0 km/h
205 25-11-2011 16:57:01 3.2 C 4.94 g/m*3 3.2 C 0 km/h
206 25-11-2011 17:09:02 3.2 C 4.88 g/m*3 3.2 C 0 km/h
207 25-11-2011 17:21:01 3.3 C 4.91 g/m*3 3.3 C 0 km/h
208 25-11-2011 17:33:02 3.4 C 4.89 g/m*3 3.4 C 0 km/h
209 25-11-2011 17:45:01 3.4 C 4.83 g/m*3 3.4 C 0 km/h
210 25-11-2011 17:57:01 3.4 C 4.83 g/m*3 3.4 C 0 km/h
211 25-11-2011 18:09:02 3.4 C 4.83 g/m*3 3.4 C 0 km/h
212 25-11-2011 18:21:02 3.4 C 4.89 g/m*3 3.4 C 0 km/h
213 25-11-2011 18:33:01 3.3 C 4.79 g/m*3 3.3 C 0 km/h
214 25-11-2011 18:45:02 3.4 C 4.89 g/m*3 3.4 C 0 km/h
215 25-11-2011 18:57:02 3.4 C 4.89 g/m*3 3.4 C 0 km/h
216 25-11-2011 19:09:01 3.3 C 4.91 g/m*3 3.3 C 0 km/h
217 25-11-2011 19:21:02 3.6 C 5.01 g/m*3 3.6 C 0 km/h
218 25-11-2011 19:33:01 3.4 C 4.89 g/m*3 3.4 C 0 km/h
219 25-11-2011 19:45:02 3.6 C 5.01 g/m*3 3.6 C 0 km/h
220 25-11-2011 19:57:02 3.8 C 5.02 g/m*3 3.8 C 0 km/h
221 25-11-2011 20:09:01 3.9 C 5.05 g/m*3 3.9 C 0 km/h
222 25-11-2011 20:21:01 4 C 5.02 g/m*3 4 C 0 km/h
223 25-11-2011 20:33:01 4.1 C 5.06 g/m*3 4.1 C 0 km/h
224 25-11-2011 20:45:02 4 C 4.96 g/m*3 4 C 0 km/h
225 25-11-2011 20:57:03 4 C 5.02 g/m*3 4 C 0 km/h
Sensor: Nr:Datum:Temp:Abs-Feuchte:Windchill:Wind:
Aussen-T/F 226 25-11-2011 21:09:01 3.8 C 5.02 g/m*3 3.8 C 0 km/h
227 25-11-2011 21:21:02 3.7 C 4.99 g/m*3 3.7 C 0 km/h
228 25-11-2011 21:33:02 3.7 C 5.05 g/m*3 3.7 C 0 km/h
229 25-11-2011 21:45:01 3.7 C 5.05 g/m*3 3.7 C 0 km/h
230 25-11-2011 21:57:01 3.7 C 5.11 g/m*3 3.7 C 0 km/h
231 25-11-2011 22:09:02 3.9 C 5.18 g/m*3 3.9 C 0 km/h
232 25-11-2011 22:21:01 4 C 5.15 g/m*3 4 C 0 km/h
233 25-11-2011 22:33:02 4 C 5.15 g/m*3 4 C 0 km/h
234 25-11-2011 22:45:02 4 C 5.15 g/m*3 4 C 0 km/h
235 25-11-2011 22:57:02 4.1 C 5.25 g/m*3 4.1 C 0 km/h
236 25-11-2011 23:09:02 4.2 C 5.28 g/m*3 4.2 C 0 km/h
237 25-11-2011 23:21:01 4.3 C 5.32 g/m*3 4.3 C 0 km/h
238 25-11-2011 23:33:02 4.4 C 5.29 g/m*3 4.4 C 0 km/h
239 25-11-2011 23:45:02 4.4 C 5.29 g/m*3 4.4 C 0 km/h
240 25-11-2011 23:57:02 4.4 C 5.29 g/m*3 4.4 C 0 km/h
241 26-11-2011 00:09:02 4.1 C 5.18 g/m*3 4.1 C 0 km/h
242 26-11-2011 00:21:02 3.6 C 5.14 g/m*3 3.6 C 0 km/h
243 26-11-2011 00:33:01 3.7 C 5.23 g/m*3 3.7 C 0 km/h
244 26-11-2011 00:45:02 4 C 5.34 g/m*3 4 C 0 km/h
245 26-11-2011 00:57:03 3.2 C 5.06 g/m*3 3.2 C 0 km/h
246 26-11-2011 01:09:01 2.7 C 5.01 g/m*3 2.7 C 0 km/h
247 26-11-2011 01:21:01 3.7 C 5.42 g/m*3 3.7 C 0 km/h
248 26-11-2011 01:33:02 3.7 C 5.42 g/m*3 3.7 C 0 km/h
249 26-11-2011 01:45:02 3 C 5.11 g/m*3 3 C 0 km/h
250 26-11-2011 01:57:02 3.2 C 5.3 g/m*3 3.2 C 0 km/h
Sensor: Nr:Datum:Temp:Abs-Feuchte:Windchill:Wind:
Aussen-T/F 251 26-11-2011 02:09:02 3.6 C 5.45 g/m*3 3.6 C 0 km/h
252 26-11-2011 02:21:02 3.5 C 5.41 g/m*3 3.5 C 0 km/h
253 26-11-2011 02:33:02 3.7 C 5.48 g/m*3 3.7 C 0 km/h
254 26-11-2011 02:45:01 4.3 C 5.58 g/m*3 4.3 C 0 km/h
255 26-11-2011 02:57:01 4.4 C 5.55 g/m*3 4.4 C 0 km/h
256 26-11-2011 03:09:01 4.4 C 5.42 g/m*3 4.4 C 0 km/h
257 26-11-2011 03:21:02 4.5 C 5.46 g/m*3 4.5 C 0 km/h
258 26-11-2011 03:33:01 4.6 C 5.49 g/m*3 4.6 C 0 km/h
259 26-11-2011 03:45:01 4.6 C 5.43 g/m*3 4.6 C 0 km/h
260 26-11-2011 03:57:01 4.9 C 5.54 g/m*3 4.9 C 0 km/h
261 26-11-2011 04:09:02 4.8 C 5.43 g/m*3 4.8 C 0 km/h
262 26-11-2011 04:21:01 4.8 C 5.5 g/m*3 4.8 C 0 km/h
263 26-11-2011 04:33:02 4.6 C 5.43 g/m*3 4.6 C 0 km/h
264 26-11-2011 04:45:01 4.3 C 5.38 g/m*3 4.3 C 0 km/h
265 26-11-2011 04:57:01 4.2 C 5.41 g/m*3 4.2 C 0 km/h
266 26-11-2011 05:09:02 4.7 C 5.6 g/m*3 4.7 C 0 km/h
267 26-11-2011 05:21:01 4.8 C 5.57 g/m*3 4.8 C 0 km/h
268 26-11-2011 05:33:01 4.5 C 5.46 g/m*3 4.5 C 0 km/h
269 26-11-2011 05:45:01 4.3 C 5.45 g/m*3 4.3 C 0 km/h
270 26-11-2011 05:57:01 4.3 C 5.45 g/m*3 4.3 C 0 km/h
271 26-11-2011 06:09:01 4.3 C 5.51 g/m*3 4.3 C 0 km/h
272 26-11-2011 06:21:01 4.3 C 5.51 g/m*3 4.3 C 0 km/h
273 26-11-2011 06:33:01 4.1 C 5.44 g/m*3 4.1 C 0 km/h
274 26-11-2011 06:45:01 4.4 C 5.62 g/m*3 4.4 C 0 km/h
275 26-11-2011 06:57:01 4.3 C 5.58 g/m*3 4.3 C 0 km/h
Sensor: Nr:Datum:Temp:Abs-Feuchte:Windchill:Wind:
Aussen-T/F 276 26-11-2011 07:09:01 4.5 C 5.59 g/m*3 4.5 C 0 km/h
277 26-11-2011 07:21:02 4.7 C 5.6 g/m*3 4.7 C 0 km/h
278 26-11-2011 07:33:01 4.5 C 5.52 g/m*3 4.5 C 0 km/h
279 26-11-2011 07:45:02 4.2 C 5.41 g/m*3 4.2 C 0 km/h
280 26-11-2011 07:57:02 4.3 C 5.51 g/m*3 4.3 C 0 km/h
281 26-11-2011 08:09:01 4.3 C 5.51 g/m*3 4.3 C 0 km/h
282 26-11-2011 08:21:01 4.4 C 5.55 g/m*3 4.4 C 0 km/h
283 26-11-2011 08:33:02 5 C 5.71 g/m*3 5 C 0 km/h
284 26-11-2011 08:45:01 4.7 C 5.6 g/m*3 4.7 C 0 km/h
285 26-11-2011 08:57:01 4.8 C 5.63 g/m*3 4.8 C 0 km/h
286 26-11-2011 09:09:01 5 C 5.57 g/m*3 5 C 0 km/h
287 26-11-2011 09:21:01 5.1 C 5.61 g/m*3 5.1 C 0 km/h
288 26-11-2011 09:33:02 5 C 5.5 g/m*3 5 C 0 km/h
289 26-11-2011 09:45:01 5.6 C 5.59 g/m*3 5.6 C 0 km/h
290 26-11-2011 09:57:01 5.7 C 5.55 g/m*3 5.7 C 0 km/h
291 26-11-2011 10:09:02 6.3 C 5.48 g/m*3 6.3 C 0 km/h
292 26-11-2011 10:21:01 6.4 C 5.44 g/m*3 6.4 C 0 km/h
293 26-11-2011 10:33:01 6.7 C 5.47 g/m*3 6.7 C 0 km/h
294 26-11-2011 10:45:01 6.9 C 5.47 g/m*3 6.9 C 0 km/h
295 26-11-2011 10:57:01 7 C 5.42 g/m*3 7 C 0 km/h
296 26-11-2011 11:09:01 7.2 C 5.49 g/m*3 7.2 C 0 km/h
297 26-11-2011 11:21:01 7.3 C 5.45 g/m*3 7.3 C 0 km/h
298 26-11-2011 11:33:01 7.3 C 5.53 g/m*3 7.3 C 0 km/h
299 26-11-2011 11:45:01 7.4 C 5.57 g/m*3 7.4 C 0 km/h
300 26-11-2011 11:57:01 7.5 C 5.6 g/m*3 7.5 C 0 km/h
Sensor: Nr:Datum:Temp:Abs-Feuchte:Windchill:Wind:
Aussen-T/F 301 26-11-2011 12:09:01 7.4 C 5.57 g/m*3 7.4 C 0 km/h
302 26-11-2011 12:21:02 7.6 C 5.72 g/m*3 7.6 C 0 km/h
303 26-11-2011 12:33:01 7.5 C 5.68 g/m*3 7.5 C 0 km/h
304 26-11-2011 12:45:02 7.7 C 5.68 g/m*3 7.7 C 0 km/h
305 26-11-2011 12:57:02 7.9 C 5.75 g/m*3 7.9 C 0 km/h
306 26-11-2011 13:09:01 7.9 C 5.75 g/m*3 7.9 C 0 km/h
307 26-11-2011 13:21:01 8 C 5.7 g/m*3 8 C 0 km/h
308 26-11-2011 13:33:01 8.1 C 5.74 g/m*3 8.1 C 0 km/h
309 26-11-2011 13:45:01 8.1 C 5.66 g/m*3 8.1 C 0 km/h
310 26-11-2011 13:57:02 8.2 C 5.69 g/m*3 8.2 C 0 km/h
311 26-11-2011 14:09:01 8.4 C 5.77 g/m*3 8.4 C 0 km/h
312 26-11-2011 14:21:01 8.2 C 5.69 g/m*3 8.2 C 0 km/h
313 26-11-2011 14:33:02 8.2 C 5.69 g/m*3 8.2 C 0 km/h
314 26-11-2011 14:45:01 8.2 C 5.69 g/m*3 8.2 C 0 km/h
315 26-11-2011 14:57:01 8.2 C 5.69 g/m*3 8.2 C 0 km/h
316 26-11-2011 15:09:02 8.5 C 5.81 g/m*3 8.5 C 0 km/h
317 26-11-2011 15:21:01 8.2 C 5.69 g/m*3 8.2 C 0 km/h
318 26-11-2011 15:33:02 8 C 5.7 g/m*3 8 C 0 km/h
319 26-11-2011 15:45:01 8 C 5.7 g/m*3 8 C 0 km/h
320 26-11-2011 15:57:01 8 C 5.7 g/m*3 8 C 0 km/h
321 26-11-2011 16:09:02 8.1 C 5.74 g/m*3 8.1 C 0 km/h
322 26-11-2011 16:21:01 7.8 C 5.79 g/m*3 7.8 C 0 km/h
323 26-11-2011 16:33:01 7.8 C 5.88 g/m*3 7.8 C 0 km/h
324 26-11-2011 16:45:01 7.8 C 5.79 g/m*3 7.8 C 0 km/h
325 26-11-2011 16:57:01 7.7 C 5.76 g/m*3 7.7 C 0 km/h
Sensor: Nr:Datum:Temp:Abs-Feuchte:Windchill:Wind:
Aussen-T/F 326 26-11-2011 17:09:01 8.1 C 5.74 g/m*3 8.1 C 0 km/h
327 26-11-2011 17:21:02 8.3 C 5.73 g/m*3 8.3 C 0 km/h
328 26-11-2011 17:33:01 8.1 C 5.66 g/m*3 8.1 C 0 km/h
329 26-11-2011 17:45:02 8.1 C 5.66 g/m*3 8.1 C 0 km/h
330 26-11-2011 17:57:02 7.9 C 5.67 g/m*3 7.9 C 0 km/h
331 26-11-2011 18:09:01 8 C 5.62 g/m*3 8 C 0 km/h
332 26-11-2011 18:21:02 7.9 C 5.75 g/m*3 7.9 C 0 km/h
333 26-11-2011 18:33:01 8.2 C 5.69 g/m*3 8.2 C 0 km/h
334 26-11-2011 18:45:02 8.2 C 5.61 g/m*3 8.2 C 0 km/h
335 26-11-2011 18:57:02 8.2 C 5.61 g/m*3 8.2 C 0 km/h
336 26-11-2011 19:09:01 8.3 C 5.65 g/m*3 8.3 C 0 km/h
337 26-11-2011 19:21:01 8.2 C 5.53 g/m*3 8.2 C 0 km/h
338 26-11-2011 19:33:02 8.2 C 5.53 g/m*3 8.2 C 0 km/h
339 26-11-2011 19:45:01 8.1 C 5.57 g/m*3 8.1 C 0 km/h
340 26-11-2011 19:57:01 7.9 C 5.59 g/m*3 7.9 C 0 km/h
341 26-11-2011 20:09:01 7.9 C 5.59 g/m*3 7.9 C 0 km/h
342 26-11-2011 20:21:01 7.8 C 5.55 g/m*3 7.8 C 0 km/h
343 26-11-2011 20:33:02 7.7 C 5.43 g/m*3 7.7 C 0 km/h
344 26-11-2011 20:45:01 7.6 C 5.4 g/m*3 7.6 C 0 km/h
345 26-11-2011 20:57:01 7.6 C 5.4 g/m*3 7.6 C 0 km/h
346 26-11-2011 21:09:02 7.5 C 5.44 g/m*3 7.5 C 0 km/h
347 26-11-2011 21:21:01 7.4 C 5.41 g/m*3 7.4 C 0 km/h
348 26-11-2011 21:33:01 7.4 C 5.49 g/m*3 7.4 C 0 km/h
349 26-11-2011 21:45:01 7.3 C 5.45 g/m*3 7.3 C 0 km/h
350 26-11-2011 21:57:01 7 C 5.27 g/m*3 7 C 0 km/h
Sensor: Nr:Datum:Temp:Abs-Feuchte:Windchill:Wind:
Aussen-T/F 351 26-11-2011 22:09:02 7 C 5.35 g/m*3 7 C 0 km/h
352 26-11-2011 22:21:01 6.8 C 5.28 g/m*3 6.8 C 0 km/h
353 26-11-2011 22:33:01 6.7 C 5.17 g/m*3 6.7 C 0 km/h
354 26-11-2011 22:45:01 6.4 C 5.07 g/m*3 6.4 C 0 km/h
355 26-11-2011 22:57:01 6.5 C 5.02 g/m*3 6.5 C 0 km/h
356 26-11-2011 23:09:01 6.7 C 5.09 g/m*3 6.7 C 0 km/h
357 26-11-2011 23:21:02 6.9 C 5.08 g/m*3 6.9 C 0 km/h
358 26-11-2011 23:33:01 7 C 4.96 g/m*3 7 C 0 km/h
359 26-11-2011 23:45:02 7 C 4.96 g/m*3 7 C 0 km/h
360 26-11-2011 23:57:02 6.9 C 5.16 g/m*3 6.9 C 0 km/h
361 27-11-2011 00:09:01 7 C 5.04 g/m*3 7 C 0 km/h
362 27-11-2011 00:21:01 7 C 5.11 g/m*3 7 C 0 km/h
363 27-11-2011 00:33:01 7 C 5.11 g/m*3 7 C 0 km/h
364 27-11-2011 00:45:01 7 C 5.11 g/m*3 7 C 0 km/h
365 27-11-2011 00:57:01 7 C 5.11 g/m*3 7 C 0 km/h
366 27-11-2011 01:09:01 6.9 C 5.16 g/m*3 6.9 C 0 km/h
367 27-11-2011 01:21:02 7 C 5.11 g/m*3 7 C 0 km/h
368 27-11-2011 01:33:01 7 C 5.19 g/m*3 7 C 0 km/h
369 27-11-2011 01:45:02 7.1 C 5.15 g/m*3 7.1 C 0 km/h
370 27-11-2011 01:57:02 7 C 5.11 g/m*3 7 C 0 km/h
371 27-11-2011 02:09:01 7 C 5.19 g/m*3 7 C 0 km/h
372 27-11-2011 02:21:02 7 C 5.19 g/m*3 7 C 0 km/h
373 27-11-2011 02:33:01 7 C 5.19 g/m*3 7 C 0 km/h
374 27-11-2011 02:46:06 6.9 C 5.23 g/m*3 6.9 C 0 km/h
375 27-11-2011 02:58:06 7 C 5.19 g/m*3 7 C 0 km/h
Sensor: Nr:Datum:Temp:Abs-Feuchte:Windchill:Wind:
Aussen-T/F 376 27-11-2011 03:10:05 7 C 5.19 g/m*3 7 C 0 km/h
377 27-11-2011 03:22:05 6.9 C 5.31 g/m*3 6.9 C 0 km/h
378 27-11-2011 03:34:01 6.9 C 5.31 g/m*3 6.9 C 0 km/h
379 27-11-2011 03:46:01 6.9 C 5.31 g/m*3 6.9 C 0 km/h
380 27-11-2011 03:58:01 7 C 5.27 g/m*3 7 C 0 km/h
381 27-11-2011 04:10:02 6.9 C 5.31 g/m*3 6.9 C 0 km/h
382 27-11-2011 04:22:02 6.9 C 5.31 g/m*3 6.9 C 0 km/h
383 27-11-2011 04:34:01 6.8 C 5.28 g/m*3 6.8 C 0 km/h
384 27-11-2011 04:46:02 6.8 C 5.35 g/m*3 6.8 C 0 km/h
385 27-11-2011 04:58:02 6.7 C 5.32 g/m*3 6.7 C 0 km/h
386 27-11-2011 05:10:01 6.7 C 5.32 g/m*3 6.7 C 0 km/h
387 27-11-2011 05:22:02 6.6 C 5.21 g/m*3 6.6 C 0 km/h
388 27-11-2011 05:34:01 6.4 C 5.22 g/m*3 6.4 C 0 km/h
389 27-11-2011 05:46:02 6.4 C 5.22 g/m*3 6.4 C 0 km/h
390 27-11-2011 05:58:02 6.4 C 5.22 g/m*3 6.4 C 0 km/h
391 27-11-2011 06:10:02 6.4 C 5.22 g/m*3 6.4 C 0 km/h
392 27-11-2011 06:22:02 6.5 C 5.25 g/m*3 6.5 C 0 km/h
393 27-11-2011 06:34:02 6.3 C 5.26 g/m*3 6.3 C 0 km/h
394 27-11-2011 06:46:01 6.4 C 5.22 g/m*3 6.4 C 0 km/h
395 27-11-2011 06:58:01 6.3 C 5.26 g/m*3 6.3 C 0 km/h
396 27-11-2011 07:10:01 6.4 C 5.22 g/m*3 6.4 C 0 km/h
397 27-11-2011 07:22:01 6.5 C 5.25 g/m*3 6.5 C 0 km/h
398 27-11-2011 07:34:02 6.4 C 5.14 g/m*3 6.4 C 0 km/h
399 27-11-2011 07:46:02 6.6 C 5.21 g/m*3 6.6 C 0 km/h
400 27-11-2011 07:58:02 6.6 C 5.13 g/m*3 6.6 C 0 km/h
Sensor: Nr:Datum:Temp:Abs-Feuchte:Windchill:Wind:
Aussen-T/F 401 27-11-2011 08:10:02 6.6 C 5.13 g/m*3 6.6 C 0 km/h
402 27-11-2011 08:22:01 6.4 C 5.07 g/m*3 6.4 C 0 km/h
403 27-11-2011 08:34:02 6.4 C 4.99 g/m*3 6.4 C 0 km/h
404 27-11-2011 08:46:02 6.5 C 4.95 g/m*3 6.5 C 0 km/h
405 27-11-2011 08:58:02 6.8 C 5.05 g/m*3 6.8 C 0 km/h
406 27-11-2011 09:10:02 7.1 C 4.91 g/m*3 7.1 C 0 km/h
407 27-11-2011 09:22:01 7.2 C 4.87 g/m*3 7.2 C 0 km/h
408 27-11-2011 09:34:02 7 C 4.8 g/m*3 7 C 0 km/h
409 27-11-2011 09:46:01 7.2 C 4.87 g/m*3 7.2 C 0 km/h
410 27-11-2011 09:58:01 7.3 C 4.9 g/m*3 7.3 C 0 km/h
411 27-11-2011 10:10:02 7.6 C 4.91 g/m*3 7.6 C 0 km/h
412 27-11-2011 10:22:02 7.7 C 4.95 g/m*3 7.7 C 0 km/h
413 27-11-2011 10:34:02 7.9 C 4.93 g/m*3 7.9 C 0 km/h
414 27-11-2011 10:46:02 8 C 4.88 g/m*3 8 C 0 km/h
415 27-11-2011 10:58:02 8 C 4.88 g/m*3 8 C 0 km/h
416 27-11-2011 11:10:01 7.9 C 4.93 g/m*3 7.9 C 0 km/h
417 27-11-2011 11:22:02 8 C 4.96 g/m*3 8 C 0 km/h
418 27-11-2011 11:34:01 8 C 5.04 g/m*3 8 C 0 km/h
419 27-11-2011 11:46:01 8.1 C 5.08 g/m*3 8.1 C 0 km/h
420 27-11-2011 11:58:01 8.1 C 5.16 g/m*3 8.1 C 0 km/h
421 27-11-2011 12:10:01 8.2 C 5.19 g/m*3 8.2 C 0 km/h
422 27-11-2011 12:22:01 8.5 C 5.29 g/m*3 8.5 C 0 km/h
423 27-11-2011 12:34:02 8.4 C 5.26 g/m*3 8.4 C 0 km/h
424 27-11-2011 12:46:02 8.5 C 5.29 g/m*3 8.5 C 0 km/h
425 27-11-2011 12:58:02 8.7 C 5.36 g/m*3 8.7 C 0 km/h
Sensor: Nr:Datum:Temp:Abs-Feuchte:Windchill:Wind:
Aussen-T/F 426 27-11-2011 13:10:02 9 C 5.38 g/m*3 9 C 0 km/h
427 27-11-2011 13:22:01 9.3 C 5.48 g/m*3 9.3 C 0 km/h
428 27-11-2011 13:34:02 9.6 C 5.59 g/m*3 9.6 C 0 km/h
429 27-11-2011 13:46:02 9.1 C 5.5 g/m*3 9.1 C 0 km/h
430 27-11-2011 13:58:02 8.9 C 5.69 g/m*3 8.9 C 0 km/h
431 27-11-2011 14:10:02 8.9 C 5.69 g/m*3 8.9 C 0 km/h
432 27-11-2011 14:22:02 9 C 5.73 g/m*3 9 C 0 km/h
433 27-11-2011 14:34:02 8.9 C 5.87 g/m*3 8.9 C 0 km/h
434 27-11-2011 14:46:02 8.7 C 5.97 g/m*3 8.7 C 0 km/h
435 27-11-2011 14:58:02 8.7 C 5.97 g/m*3 8.7 C 0 km/h
436 27-11-2011 15:10:02 8.6 C 6.02 g/m*3 8.6 C 0 km/h
437 27-11-2011 15:22:02 8.7 C 6.05 g/m*3 8.7 C 0 km/h
438 27-11-2011 15:34:02 8.8 C 6.18 g/m*3 8.8 C 0 km/h
439 27-11-2011 15:46:02 8.8 C 6.18 g/m*3 8.8 C 0 km/h
440 27-11-2011 15:58:02 8.9 C 6.22 g/m*3 8.9 C 0 km/h
441 27-11-2011 16:10:02 8.6 C 6.19 g/m*3 8.6 C 0 km/h
442 27-11-2011 16:22:02 8.6 C 6.44 g/m*3 8.6 C 0 km/h
443 27-11-2011 16:34:01 8.5 C 6.4 g/m*3 8.5 C 0 km/h
444 27-11-2011 16:46:02 8.7 C 6.49 g/m*3 8.7 C 0 km/h
445 27-11-2011 16:58:02 8.3 C 6.41 g/m*3 8.3 C 0 km/h
446 27-11-2011 17:10:01 8.7 C 6.66 g/m*3 8.7 C 0 km/h
447 27-11-2011 17:22:02 8.6 C 6.62 g/m*3 8.6 C 0 km/h
448 27-11-2011 17:34:02 8.8 C 6.7 g/m*3 8.8 C 0 km/h
449 27-11-2011 17:46:02 8.9 C 6.66 g/m*3 8.9 C 0 km/h
450 27-11-2011 17:58:02 8.6 C 6.53 g/m*3 8.6 C 0 km/h
Sensor: Nr:Datum:Temp:Abs-Feuchte:Windchill:Wind:
Aussen-T/F 451 27-11-2011 18:10:02 8.6 C 6.62 g/m*3 8.6 C 0 km/h
452 27-11-2011 18:22:02 8.8 C 6.7 g/m*3 8.8 C 0 km/h
453 27-11-2011 18:34:02 9.1 C 6.65 g/m*3 9.1 C 0 km/h
454 27-11-2011 18:46:01 9.3 C 6.74 g/m*3 9.3 C 0 km/h
455 27-11-2011 18:58:01 8.7 C 6.75 g/m*3 8.7 C 0 km/h
456 27-11-2011 19:10:02 8.7 C 7.01 g/m*3 8.7 C 0 km/h
457 27-11-2011 19:22:01 8.9 C 7.18 g/m*3 8.9 C 0 km/h
458 27-11-2011 19:34:02 8.8 C 7.14 g/m*3 8.8 C 0 km/h
459 27-11-2011 19:46:01 9.1 C 7.19 g/m*3 9.1 C 0 km/h
460 27-11-2011 19:58:01 9.1 C 7.01 g/m*3 9.1 C 0 km/h
461 27-11-2011 20:10:02 8.8 C 6.88 g/m*3 8.8 C 0 km/h
462 27-11-2011 20:22:01 8.6 C 6.87 g/m*3 8.6 C 0 km/h
463 27-11-2011 20:34:02 7.9 C 6.65 g/m*3 7.9 C 0 km/h
464 27-11-2011 20:46:01 7 C 6.35 g/m*3 7 C 0 km/h
465 27-11-2011 20:58:01 7.2 C 6.52 g/m*3 7.2 C 0 km/h
466 27-11-2011 21:10:02 6.7 C 6.38 g/m*3 6.7 C 0 km/h
467 27-11-2011 21:22:02 6.6 C 6.27 g/m*3 6.6 C 0 km/h
468 27-11-2011 21:34:01 6.4 C 6.26 g/m*3 6.4 C 0 km/h
469 27-11-2011 21:46:02 6.6 C 6.27 g/m*3 6.6 C 0 km/h
470 27-11-2011 21:58:02 6.5 C 6.07 g/m*3 6.5 C 0 km/h
471 27-11-2011 22:10:01 5.9 C 5.91 g/m*3 5.9 C 0 km/h
472 27-11-2011 22:22:02 5.8 C 5.87 g/m*3 5.8 C 0 km/h
473 27-11-2011 22:34:01 5.8 C 5.87 g/m*3 5.8 C 0 km/h
474 27-11-2011 22:46:02 4.7 C 5.46 g/m*3 4.7 C 0 km/h
475 27-11-2011 22:58:02 4.1 C 5.31 g/m*3 4.1 C 0 km/h
Sensor: Nr:Datum:Temp:Abs-Feuchte:Windchill:Wind:
Aussen-T/F 476 27-11-2011 23:10:02 4.8 C 5.7 g/m*3 4.8 C 0 km/h
477 27-11-2011 23:22:02 4.5 C 5.59 g/m*3 4.5 C 0 km/h
478 27-11-2011 23:34:03 4 C 5.47 g/m*3 4 C 0 km/h
479 27-11-2011 23:46:02 3.9 C 5.49 g/m*3 3.9 C 0 km/h
480 27-11-2011 23:58:02 3.2 C 5.24 g/m*3 3.2 C 0 km/h
481 28-11-2011 00:10:02 2.8 C 5.16 g/m*3 2.8 C 0 km/h
482 28-11-2011 00:22:01 3.3 C 5.34 g/m*3 3.3 C 0 km/h
483 28-11-2011 00:34:02 2.8 C 5.22 g/m*3 2.8 C 0 km/h
484 28-11-2011 00:46:01 2.7 C 5.19 g/m*3 2.7 C 0 km/h
485 28-11-2011 00:58:01 2.3 C 5.05 g/m*3 2.3 C 0 km/h
486 28-11-2011 01:10:02 2.6 C 5.15 g/m*3 2.6 C 0 km/h
487 28-11-2011 01:22:02 2.5 C 5.17 g/m*3 2.5 C 0 km/h
488 28-11-2011 01:34:01 3 C 5.35 g/m*3 3 C 0 km/h
489 28-11-2011 01:46:02 2.8 C 5.34 g/m*3 2.8 C 0 km/h
490 28-11-2011 01:58:02 2.3 C 5.16 g/m*3 2.3 C 0 km/h
491 28-11-2011 02:10:01 2.1 C 5.09 g/m*3 2.1 C 0 km/h
492 28-11-2011 02:22:02 2.1 C 5.09 g/m*3 2.1 C 0 km/h
493 28-11-2011 02:34:01 2.1 C 5.09 g/m*3 2.1 C 0 km/h
494 28-11-2011 02:46:02 2.2 C 5.13 g/m*3 2.2 C 0 km/h
495 28-11-2011 02:58:02 1.3 C 4.82 g/m*3 1.3 C 0 km/h
496 28-11-2011 03:10:01 1.5 C 4.94 g/m*3 1.5 C 0 km/h
497 28-11-2011 03:22:01 1.5 C 4.94 g/m*3 1.5 C 0 km/h
498 28-11-2011 03:34:02 1.7 C 5.01 g/m*3 1.7 C 0 km/h
499 28-11-2011 03:46:02 1.2 C 4.84 g/m*3 1.2 C 0 km/h
500 28-11-2011 03:58:02 1.2 C 4.84 g/m*3 1.2 C 0 km/h
Sensor: Nr:Datum:Temp:Abs-Feuchte:Windchill:Wind:
Aussen-T/F 501 28-11-2011 04:10:01 0.7 C 4.68 g/m*3 0.7 C 0 km/h
502 28-11-2011 04:22:02 0.4 C 4.63 g/m*3 0.4 C 0 km/h
503 28-11-2011 04:34:01 0.3 C 4.6 g/m*3 0.3 C 0 km/h
504 28-11-2011 04:46:02 0.9 C 4.79 g/m*3 0.9 C 0 km/h
505 28-11-2011 04:58:02 0.5 C 4.66 g/m*3 0.5 C 0 km/h
506 28-11-2011 05:10:01 0.1 C 4.54 g/m*3 0.1 C 0 km/h
507 28-11-2011 05:22:01 -0.2 C 4.44 g/m*3 -0.2 C 0 km/h
508 28-11-2011 05:34:02 0.4 C 4.63 g/m*3 0.4 C 0 km/h
509 28-11-2011 05:46:01 0.3 C 4.6 g/m*3 0.3 C 0 km/h
510 28-11-2011 05:58:01 0.1 C 4.54 g/m*3 0.1 C 0 km/h
511 28-11-2011 06:10:02 0 C 4.51 g/m*3 0 C 0 km/h
512 28-11-2011 06:22:01 0 C 4.51 g/m*3 0 C 0 km/h
513 28-11-2011 06:34:01 0 C 4.51 g/m*3 0 C 0 km/h
514 28-11-2011 06:46:01 -0.1 C 4.47 g/m*3 -0.1 C 0 km/h
515 28-11-2011 06:58:01 -0.3 C 4.41 g/m*3 -0.3 C 0 km/h
516 28-11-2011 07:10:02 -0.2 C 4.49 g/m*3 -0.2 C 0 km/h
517 28-11-2011 07:22:01 0.1 C 4.59 g/m*3 0.1 C 0 km/h
518 28-11-2011 07:34:01 0 C 4.55 g/m*3 0 C 0 km/h
519 28-11-2011 07:46:01 0 C 4.55 g/m*3 0 C 0 km/h
520 28-11-2011 07:58:01 -0.2 C 4.49 g/m*3 -0.2 C 0 km/h
521 28-11-2011 08:10:01 -0.1 C 4.52 g/m*3 -0.1 C 0 km/h
522 28-11-2011 08:22:02 0.1 C 4.59 g/m*3 0.1 C 0 km/h
523 28-11-2011 08:34:01 0 C 4.55 g/m*3 0 C 0 km/h
524 28-11-2011 08:46:02 -0.2 C 4.49 g/m*3 -0.2 C 0 km/h
525 28-11-2011 08:58:02 -0.2 C 4.49 g/m*3 -0.2 C 0 km/h
Sensor: Nr:Datum:Temp:Abs-Feuchte:Windchill:Wind:
Aussen-T/F 526 28-11-2011 09:10:01 -0.2 C 4.49 g/m*3 -0.2 C 0 km/h
527 28-11-2011 09:22:02 -0.2 C 4.49 g/m*3 -0.2 C 0 km/h
528 28-11-2011 09:34:01 -0.1 C 4.52 g/m*3 -0.1 C 0 km/h
529 28-11-2011 09:46:01 -0.2 C 4.49 g/m*3 -0.2 C 0 km/h
530 28-11-2011 09:58:02 0 C 4.55 g/m*3 0 C 0 km/h
531 28-11-2011 10:10:01 0.3 C 4.65 g/m*3 0.3 C 0 km/h
532 28-11-2011 10:22:01 0.5 C 4.71 g/m*3 0.5 C 0 km/h
533 28-11-2011 10:34:02 0.4 C 4.68 g/m*3 0.4 C 0 km/h
534 28-11-2011 10:46:01 0.7 C 4.78 g/m*3 0.7 C 0 km/h
535 28-11-2011 10:58:01 0.7 C 4.78 g/m*3 0.7 C 0 km/h
536 28-11-2011 11:10:02 0.8 C 4.81 g/m*3 0.8 C 0 km/h
537 28-11-2011 11:22:01 1 C 4.88 g/m*3 1 C 0 km/h
538 28-11-2011 11:34:01 0.8 C 4.81 g/m*3 0.8 C 0 km/h
539 28-11-2011 11:46:01 1.3 C 4.93 g/m*3 1.3 C 0 km/h
540 28-11-2011 11:58:01 1.4 C 4.96 g/m*3 1.4 C 0 km/h
541 28-11-2011 12:10:02 1.8 C 5.1 g/m*3 1.8 C 0 km/h
542 28-11-2011 12:22:01 1.8 C 5.1 g/m*3 1.8 C 0 km/h
543 28-11-2011 12:34:01 2.1 C 5.15 g/m*3 2.1 C 0 km/h
544 28-11-2011 12:46:01 2.1 C 5.15 g/m*3 2.1 C 0 km/h
545 28-11-2011 12:58:01 2.3 C 5.22 g/m*3 2.3 C 0 km/h
546 28-11-2011 13:10:01 2.1 C 5.09 g/m*3 2.1 C 0 km/h
547 28-11-2011 13:22:02 2.6 C 5.27 g/m*3 2.6 C 0 km/h
548 28-11-2011 13:34:01 2.7 C 5.3 g/m*3 2.7 C 0 km/h
549 28-11-2011 13:46:02 2.8 C 5.34 g/m*3 2.8 C 0 km/h
550 28-11-2011 13:58:02 2.6 C 5.21 g/m*3 2.6 C 0 km/h
Sensor: Nr:Datum:Temp:Abs-Feuchte:Windchill:Wind:
Aussen-T/F 551 28-11-2011 14:10:01 2.8 C 5.28 g/m*3 2.8 C 0 km/h
552 28-11-2011 14:22:01 2.8 C 5.28 g/m*3 2.8 C 0 km/h
553 28-11-2011 14:34:01 2.8 C 5.28 g/m*3 2.8 C 0 km/h
554 28-11-2011 14:46:01 2.9 C 5.32 g/m*3 2.9 C 0 km/h
555 28-11-2011 14:58:01 2.9 C 5.32 g/m*3 2.9 C 0 km/h
556 28-11-2011 15:10:01 2.8 C 5.28 g/m*3 2.8 C 0 km/h
557 28-11-2011 15:22:02 2.7 C 5.24 g/m*3 2.7 C 0 km/h
558 28-11-2011 15:34:01 2.5 C 5.23 g/m*3 2.5 C 0 km/h
559 28-11-2011 15:46:02 2.4 C 5.2 g/m*3 2.4 C 0 km/h
560 28-11-2011 15:58:02 2.3 C 5.16 g/m*3 2.3 C 0 km/h
561 28-11-2011 16:10:01 2.1 C 5.09 g/m*3 2.1 C 0 km/h
562 28-11-2011 16:22:01 2 C 5.06 g/m*3 2 C 0 km/h
563 28-11-2011 16:34:02 1.7 C 5.01 g/m*3 1.7 C 0 km/h
564 28-11-2011 16:46:01 1.6 C 4.97 g/m*3 1.6 C 0 km/h
565 28-11-2011 16:58:01 1.4 C 4.91 g/m*3 1.4 C 0 km/h
566 28-11-2011 17:10:02 1.2 C 4.84 g/m*3 1.2 C 0 km/h
567 28-11-2011 17:22:01 1 C 4.78 g/m*3 1 C 0 km/h
568 28-11-2011 17:34:02 0.7 C 4.68 g/m*3 0.7 C 0 km/h
569 28-11-2011 17:46:01 0.5 C 4.61 g/m*3 0.5 C 0 km/h
570 28-11-2011 17:58:01 0.4 C 4.58 g/m*3 0.4 C 0 km/h
571 28-11-2011 18:10:02 0.4 C 4.63 g/m*3 0.4 C 0 km/h
572 28-11-2011 18:22:01 0.3 C 4.55 g/m*3 0.3 C 0 km/h
573 28-11-2011 18:34:01 0.3 C 4.6 g/m*3 0.3 C 0 km/h
574 28-11-2011 18:46:01 0.1 C 4.54 g/m*3 0.1 C 0 km/h
575 28-11-2011 18:58:01 0 C 4.51 g/m*3 0 C 0 km/h
Sensor: Nr:Datum:Temp:Abs-Feuchte:Windchill:Wind:
Aussen-T/F 576 28-11-2011 19:10:01 -0.1 C 4.47 g/m*3 -0.1 C 0 km/h
577 28-11-2011 19:22:02 0 C 4.51 g/m*3 0 C 0 km/h
578 28-11-2011 19:34:01 0 C 4.51 g/m*3 0 C 0 km/h
579 28-11-2011 19:46:02 -0.3 C 4.41 g/m*3 -0.3 C 0 km/h
580 28-11-2011 19:58:02 -0.5 C 4.35 g/m*3 -0.5 C 0 km/h
581 28-11-2011 20:10:01 -0.5 C 4.35 g/m*3 -0.5 C 0 km/h
582 28-11-2011 20:22:02 -0.6 C 4.32 g/m*3 -0.6 C 0 km/h
583 28-11-2011 20:34:01 -0.6 C 4.32 g/m*3 -0.6 C 0 km/h
584 28-11-2011 20:46:02 -0.6 C 4.32 g/m*3 -0.6 C 0 km/h
585 28-11-2011 20:58:02 -0.5 C 4.35 g/m*3 -0.5 C 0 km/h
586 28-11-2011 21:10:01 -0.6 C 4.32 g/m*3 -0.6 C 0 km/h
587 28-11-2011 21:22:01 -0.6 C 4.32 g/m*3 -0.6 C 0 km/h
588 28-11-2011 21:34:02 -0.7 C 4.29 g/m*3 -0.7 C 0 km/h
589 28-11-2011 21:46:01 -0.9 C 4.23 g/m*3 -0.9 C 0 km/h
590 28-11-2011 21:58:01 -1 C 4.2 g/m*3 -1 C 0 km/h
591 28-11-2011 22:10:01 -1 C 4.2 g/m*3 -1 C 0 km/h
592 28-11-2011 22:22:01 -1.1 C 4.17 g/m*3 -1.1 C 0 km/h
593 28-11-2011 22:34:02 -1 C 4.2 g/m*3 -1 C 0 km/h
594 28-11-2011 22:46:01 -0.9 C 4.23 g/m*3 -0.9 C 0 km/h
595 28-11-2011 22:58:01 -0.7 C 4.29 g/m*3 -0.7 C 0 km/h
596 28-11-2011 23:10:02 -0.9 C 4.23 g/m*3 -0.9 C 0 km/h
597 28-11-2011 23:22:01 -0.9 C 4.23 g/m*3 -0.9 C 0 km/h
598 28-11-2011 23:34:01 -0.9 C 4.23 g/m*3 -0.9 C 0 km/h
599 28-11-2011 23:46:01 -0.7 C 4.34 g/m*3 -0.7 C 0 km/h
600 28-11-2011 23:58:01 -0.9 C 4.28 g/m*3 -0.9 C 0 km/h
Sensor: Nr:Datum:Temp:Abs-Feuchte:Windchill:Wind:
Aussen-T/F 601 29-11-2011 00:10:01 -0.8 C 4.31 g/m*3 -0.8 C 0 km/h
602 29-11-2011 00:22:01 -0.6 C 4.37 g/m*3 -0.6 C 0 km/h
603 29-11-2011 00:34:01 -0.7 C 4.34 g/m*3 -0.7 C 0 km/h
604 29-11-2011 00:46:01 -0.7 C 4.34 g/m*3 -0.7 C 0 km/h
605 29-11-2011 00:58:01 -0.9 C 4.28 g/m*3 -0.9 C 0 km/h
606 29-11-2011 01:10:01 -1.1 C 4.22 g/m*3 -1.1 C 0 km/h
607 29-11-2011 01:22:02 -1.2 C 4.19 g/m*3 -1.2 C 0 km/h
608 29-11-2011 01:34:01 -1.2 C 4.19 g/m*3 -1.2 C 0 km/h
609 29-11-2011 01:46:02 -1.3 C 4.16 g/m*3 -1.3 C 0 km/h
610 29-11-2011 01:58:02 -1.2 C 4.19 g/m*3 -1.2 C 0 km/h
611 29-11-2011 02:10:01 -1.2 C 4.19 g/m*3 -1.2 C 0 km/h
612 29-11-2011 02:22:01 -1.3 C 4.16 g/m*3 -1.3 C 0 km/h
613 29-11-2011 02:34:02 -1.2 C 4.19 g/m*3 -1.2 C 0 km/h
614 29-11-2011 02:47:05 -1.3 C 4.16 g/m*3 -1.3 C 0 km/h
615 29-11-2011 02:59:05 -1.2 C 4.19 g/m*3 -1.2 C 0 km/h
616 29-11-2011 03:11:04 -1.2 C 4.19 g/m*3 -1.2 C 0 km/h
617 29-11-2011 03:23:04 -1.1 C 4.22 g/m*3 -1.1 C 0 km/h
618 29-11-2011 03:35:02 -1 C 4.25 g/m*3 -1 C 0 km/h
619 29-11-2011 03:47:02 -0.7 C 4.34 g/m*3 -0.7 C 0 km/h
620 29-11-2011 03:59:02 -0.8 C 4.31 g/m*3 -0.8 C 0 km/h
621 29-11-2011 04:11:01 -0.7 C 4.34 g/m*3 -0.7 C 0 km/h
622 29-11-2011 04:23:02 -0.5 C 4.4 g/m*3 -0.5 C 0 km/h
623 29-11-2011 04:35:02 -0.4 C 4.43 g/m*3 -0.4 C 0 km/h
624 29-11-2011 04:47:02 -0.3 C 4.46 g/m*3 -0.3 C 0 km/h
625 29-11-2011 04:59:02 -0.2 C 4.49 g/m*3 -0.2 C 0 km/h
Sensor: Nr:Datum:Temp:Abs-Feuchte:Windchill:Wind:
Aussen-T/F 626 29-11-2011 05:11:02 -0.2 C 4.49 g/m*3 -0.2 C 0 km/h
627 29-11-2011 05:23:02 0 C 4.55 g/m*3 0 C 0 km/h
628 29-11-2011 05:35:02 0.1 C 4.59 g/m*3 0.1 C 0 km/h
629 29-11-2011 05:47:01 0.1 C 4.59 g/m*3 0.1 C 0 km/h
630 29-11-2011 05:59:01 0.3 C 4.65 g/m*3 0.3 C 0 km/h
631 29-11-2011 06:11:02 0.3 C 4.65 g/m*3 0.3 C 0 km/h
632 29-11-2011 06:23:01 0.3 C 4.7 g/m*3 0.3 C 0 km/h
633 29-11-2011 06:35:02 0.5 C 4.76 g/m*3 0.5 C 0 km/h
634 29-11-2011 06:47:02 0.6 C 4.8 g/m*3 0.6 C 0 km/h
635 29-11-2011 06:59:02 0.6 C 4.8 g/m*3 0.6 C 0 km/h
636 29-11-2011 07:11:02 0.6 C 4.8 g/m*3 0.6 C 0 km/h
637 29-11-2011 07:23:02 0.7 C 4.83 g/m*3 0.7 C 0 km/h
638 29-11-2011 07:35:02 0.5 C 4.76 g/m*3 0.5 C 0 km/h
639 29-11-2011 07:47:01 0.3 C 4.65 g/m*3 0.3 C 0 km/h
640 29-11-2011 07:59:01 0.4 C 4.68 g/m*3 0.4 C 0 km/h
641 29-11-2011 08:11:01 -0.4 C 4.43 g/m*3 -0.4 C 0 km/h
642 29-11-2011 08:23:02 -0.7 C 4.34 g/m*3 -0.7 C 0 km/h
643 29-11-2011 08:35:01 -0.2 C 4.49 g/m*3 -0.2 C 0 km/h
644 29-11-2011 08:47:03 0.7 C 4.78 g/m*3 0.7 C 0 km/h
645 29-11-2011 08:59:03 1.4 C 5.01 g/m*3 1.4 C 0 km/h
646 29-11-2011 09:11:02 1.5 C 5.05 g/m*3 1.5 C 0 km/h
647 29-11-2011 09:23:02 1.5 C 5.05 g/m*3 1.5 C 0 km/h
648 29-11-2011 09:35:02 1.8 C 5.21 g/m*3 1.8 C 0 km/h
649 29-11-2011 09:47:02 2 C 5.22 g/m*3 2 C 0 km/h
650 29-11-2011 09:59:02 2.3 C 5.33 g/m*3 2.3 C 0 km/h
Sensor: Nr:Datum:Temp:Abs-Feuchte:Windchill:Wind:
Aussen-T/F 651 29-11-2011 10:11:02 3.2 C 5.66 g/m*3 3.2 C 0 km/h
652 29-11-2011 10:23:02 3.7 C 5.86 g/m*3 3.7 C 0 km/h
653 29-11-2011 10:35:01 3.8 C 5.83 g/m*3 3.8 C 0 km/h
654 29-11-2011 10:47:02 3.6 C 5.76 g/m*3 3.6 C 0 km/h
655 29-11-2011 10:59:03 3.6 C 5.69 g/m*3 3.6 C 0 km/h
656 29-11-2011 11:11:01 3.4 C 5.56 g/m*3 3.4 C 0 km/h
657 29-11-2011 11:23:01 3.8 C 5.71 g/m*3 3.8 C 0 km/h
658 29-11-2011 11:35:02 3.7 C 5.48 g/m*3 3.7 C 0 km/h
659 29-11-2011 11:47:02 4.1 C 5.5 g/m*3 4.1 C 0 km/h
660 29-11-2011 11:59:02 4.3 C 5.51 g/m*3 4.3 C 0 km/h
661 29-11-2011 12:11:02 4.6 C 5.43 g/m*3 4.6 C 0 km/h
662 29-11-2011 12:23:02 5.2 C 5.37 g/m*3 5.2 C 0 km/h
663 29-11-2011 12:35:02 5.5 C 5.34 g/m*3 5.5 C 0 km/h
664 29-11-2011 12:47:02 5.4 C 5.09 g/m*3 5.4 C 0 km/h
665 29-11-2011 12:59:03 5.6 C 5.09 g/m*3 5.6 C 0 km/h
666 29-11-2011 13:11:01 5.9 C 5.19 g/m*3 5.9 C 0 km/h
667 29-11-2011 13:23:01 6.2 C 5.07 g/m*3 6.2 C 0 km/h
668 29-11-2011 13:35:02 6.2 C 5 g/m*3 6.2 C 0 km/h
669 29-11-2011 13:47:02 5.9 C 5.05 g/m*3 5.9 C 0 km/h
670 29-11-2011 13:59:02 5.9 C 5.19 g/m*3 5.9 C 0 km/h
671 29-11-2011 14:11:02 6.4 C 5.14 g/m*3 6.4 C 0 km/h
672 29-11-2011 14:23:01 6.5 C 5.02 g/m*3 6.5 C 0 km/h
673 29-11-2011 14:35:02 6.4 C 5.07 g/m*3 6.4 C 0 km/h
674 29-11-2011 14:47:02 6 C 5.01 g/m*3 6 C 0 km/h
675 29-11-2011 14:59:02 5.3 C 5.06 g/m*3 5.3 C 0 km/h
Sensor: Nr:Datum:Temp:Abs-Feuchte:Windchill:Wind:
Aussen-T/F 676 29-11-2011 15:11:02 4.9 C 5.2 g/m*3 4.9 C 0 km/h
677 29-11-2011 15:23:01 4.4 C 5.22 g/m*3 4.4 C 0 km/h
678 29-11-2011 15:35:02 4.2 C 5.22 g/m*3 4.2 C 0 km/h
679 29-11-2011 15:47:02 3.8 C 5.21 g/m*3 3.8 C 0 km/h
680 29-11-2011 15:59:02 3.2 C 5.06 g/m*3 3.2 C 0 km/h
681 29-11-2011 16:11:02 2.9 C 5.08 g/m*3 2.9 C 0 km/h
682 29-11-2011 16:23:02 2.4 C 4.97 g/m*3 2.4 C 0 km/h
683 29-11-2011 16:35:02 2.3 C 4.99 g/m*3 2.3 C 0 km/h
684 29-11-2011 16:47:02 2.2 C 4.96 g/m*3 2.2 C 0 km/h
685 29-11-2011 16:59:02 2 C 4.95 g/m*3 2 C 0 km/h
686 29-11-2011 17:11:02 1.6 C 4.81 g/m*3 1.6 C 0 km/h
687 29-11-2011 17:23:02 1.6 C 4.87 g/m*3 1.6 C 0 km/h
688 29-11-2011 17:35:01 1.6 C 4.87 g/m*3 1.6 C 0 km/h
689 29-11-2011 17:47:02 1.4 C 4.8 g/m*3 1.4 C 0 km/h
690 29-11-2011 17:59:02 1.4 C 4.8 g/m*3 1.4 C 0 km/h
691 29-11-2011 18:11:01 1.3 C 4.82 g/m*3 1.3 C 0 km/h
692 29-11-2011 18:23:01 1.6 C 4.92 g/m*3 1.6 C 0 km/h
693 29-11-2011 18:35:02 1.7 C 4.95 g/m*3 1.7 C 0 km/h
694 29-11-2011 18:47:02 1.3 C 4.87 g/m*3 1.3 C 0 km/h
695 29-11-2011 18:59:02 1.1 C 4.76 g/m*3 1.1 C 0 km/h
696 29-11-2011 19:11:01 1.6 C 4.97 g/m*3 1.6 C 0 km/h
697 29-11-2011 19:23:02 1.5 C 4.94 g/m*3 1.5 C 0 km/h
698 29-11-2011 19:35:02 1.3 C 4.87 g/m*3 1.3 C 0 km/h
699 29-11-2011 19:47:01 1.3 C 4.87 g/m*3 1.3 C 0 km/h
700 29-11-2011 19:59:01 2 C 5.11 g/m*3 2 C 0 km/h
Sensor: Nr:Datum:Temp:Abs-Feuchte:Windchill:Wind:
Aussen-T/F 701 29-11-2011 20:11:02 2 C 5.11 g/m*3 2 C 0 km/h
702 29-11-2011 20:23:01 2.1 C 5.15 g/m*3 2.1 C 0 km/h
703 29-11-2011 20:35:01 2.3 C 5.27 g/m*3 2.3 C 0 km/h
704 29-11-2011 20:47:01 2.3 C 5.27 g/m*3 2.3 C 0 km/h
705 29-11-2011 20:59:01 1.9 C 5.13 g/m*3 1.9 C 0 km/h
706 29-11-2011 21:11:02 1.7 C 5.06 g/m*3 1.7 C 0 km/h
707 29-11-2011 21:23:01 1.6 C 5.03 g/m*3 1.6 C 0 km/h
708 29-11-2011 21:35:01 2.1 C 5.2 g/m*3 2.1 C 0 km/h
709 29-11-2011 21:47:02 2.6 C 5.38 g/m*3 2.6 C 0 km/h
710 29-11-2011 21:59:02 2.1 C 5.2 g/m*3 2.1 C 0 km/h
711 29-11-2011 22:11:01 2.1 C 5.2 g/m*3 2.1 C 0 km/h
712 29-11-2011 22:23:01 1.9 C 5.19 g/m*3 1.9 C 0 km/h
713 29-11-2011 22:35:02 1.9 C 5.19 g/m*3 1.9 C 0 km/h
714 29-11-2011 22:47:02 2.1 C 5.2 g/m*3 2.1 C 0 km/h
715 29-11-2011 22:59:02 2.4 C 5.31 g/m*3 2.4 C 0 km/h
716 29-11-2011 23:11:02 3.3 C 5.64 g/m*3 3.3 C 0 km/h
717 29-11-2011 23:23:02 3.4 C 5.68 g/m*3 3.4 C 0 km/h
718 29-11-2011 23:35:02 5.1 C 6.36 g/m*3 5.1 C 0 km/h
719 29-11-2011 23:47:01 5.4 C 6.49 g/m*3 5.4 C 0 km/h
720 29-11-2011 23:59:01 6.5 C 6.9 g/m*3 6.5 C 0 km/h
721 30-11-2011 00:11:02 6.7 C 7.07 g/m*3 6.7 C 0 km/h
722 30-11-2011 00:23:02 7 C 7.13 g/m*3 7 C 0 km/h
723 30-11-2011 00:35:01 8.1 C 7.49 g/m*3 8.1 C 0 km/h
724 30-11-2011 00:47:02 7.9 C 7.23 g/m*3 7.9 C 0 km/h
725 30-11-2011 00:59:02 7.9 C 7.23 g/m*3 7.9 C 0 km/h
Sensor: Nr:Datum:Temp:Abs-Feuchte:Windchill:Wind:
Aussen-T/F 726 30-11-2011 01:11:02 8.2 C 7.29 g/m*3 8.2 C 0 km/h
727 30-11-2011 01:23:02 8.4 C 7.21 g/m*3 8.4 C 0 km/h
728 30-11-2011 01:35:03 8.4 C 7.21 g/m*3 8.4 C 0 km/h
729 30-11-2011 01:47:02 9 C 7.23 g/m*3 9 C 0 km/h
730 30-11-2011 01:59:02 9.2 C 7.05 g/m*3 9.2 C 0 km/h
731 30-11-2011 02:11:01 9.1 C 7.01 g/m*3 9.1 C 0 km/h
732 30-11-2011 02:23:02 9.3 C 7.1 g/m*3 9.3 C 0 km/h
733 30-11-2011 02:35:02 9.2 C 6.97 g/m*3 9.2 C 0 km/h
734 30-11-2011 02:47:01 9.3 C 7.01 g/m*3 9.3 C 0 km/h
735 30-11-2011 02:59:01 9.5 C 7.19 g/m*3 9.5 C 0 km/h
736 30-11-2011 03:11:02 9.5 C 7.1 g/m*3 9.5 C 0 km/h
737 30-11-2011 03:23:02 9.5 C 7.1 g/m*3 9.5 C 0 km/h
738 30-11-2011 03:35:01 9.3 C 7.01 g/m*3 9.3 C 0 km/h
739 30-11-2011 03:47:01 9.2 C 7.05 g/m*3 9.2 C 0 km/h
740 30-11-2011 03:59:02 9 C 6.96 g/m*3 9 C 0 km/h
741 30-11-2011 04:11:01 8.7 C 7.01 g/m*3 8.7 C 0 km/h
742 30-11-2011 04:23:01 8.6 C 6.96 g/m*3 8.6 C 0 km/h
743 30-11-2011 04:35:02 8.6 C 7.13 g/m*3 8.6 C 0 km/h
744 30-11-2011 04:47:01 8.5 C 7.09 g/m*3 8.5 C 0 km/h
745 30-11-2011 04:59:01 8.1 C 6.91 g/m*3 8.1 C 0 km/h
746 30-11-2011 05:11:02 8.2 C 7.03 g/m*3 8.2 C 0 km/h
747 30-11-2011 05:23:01 7.8 C 6.94 g/m*3 7.8 C 0 km/h
748 30-11-2011 05:35:01 6.8 C 6.58 g/m*3 6.8 C 0 km/h
749 30-11-2011 05:47:01 6.8 C 6.65 g/m*3 6.8 C 0 km/h
750 30-11-2011 05:59:01 6.3 C 6.51 g/m*3 6.3 C 0 km/h
Sensor: Nr:Datum:Temp:Abs-Feuchte:Windchill:Wind:
Aussen-T/F 751 30-11-2011 06:11:02 6.2 C 6.47 g/m*3 6.2 C 0 km/h
752 30-11-2011 06:23:01 6 C 6.46 g/m*3 6 C 0 km/h
753 30-11-2011 06:35:01 6 C 6.46 g/m*3 6 C 0 km/h
754 30-11-2011 06:47:01 6 C 6.46 g/m*3 6 C 0 km/h
755 30-11-2011 06:59:01 5.6 C 6.43 g/m*3 5.6 C 0 km/h
756 30-11-2011 07:11:01 5.5 C 6.39 g/m*3 5.5 C 0 km/h
757 30-11-2011 07:23:02 5.3 C 6.31 g/m*3 5.3 C 0 km/h
758 30-11-2011 07:35:01 5.3 C 6.31 g/m*3 5.3 C 0 km/h
759 30-11-2011 07:47:02 4.8 C 6.17 g/m*3 4.8 C 0 km/h
760 30-11-2011 07:59:02 5 C 6.18 g/m*3 5 C 0 km/h
761 30-11-2011 08:11:01 4.6 C 6.09 g/m*3 4.6 C 0 km/h
762 30-11-2011 08:23:02 4.5 C 6.05 g/m*3 4.5 C 0 km/h
763 30-11-2011 08:35:01 4 C 5.85 g/m*3 4 C 0 km/h
764 30-11-2011 08:47:02 4.1 C 5.89 g/m*3 4.1 C 0 km/h
765 30-11-2011 08:59:02 4.8 C 6.17 g/m*3 4.8 C 0 km/h
766 30-11-2011 09:11:01 4.7 C 6.13 g/m*3 4.7 C 0 km/h
767 30-11-2011 09:23:01 4.6 C 6.09 g/m*3 4.6 C 0 km/h
768 30-11-2011 09:35:02 4 C 5.85 g/m*3 4 C 0 km/h
769 30-11-2011 09:47:01 3.3 C 5.58 g/m*3 3.3 C 0 km/h
770 30-11-2011 09:59:01 3.7 C 5.73 g/m*3 3.7 C 0 km/h
771 30-11-2011 10:11:02 4 C 5.85 g/m*3 4 C 0 km/h
772 30-11-2011 10:23:01 3.9 C 5.87 g/m*3 3.9 C 0 km/h
773 30-11-2011 10:35:01 3.9 C 5.87 g/m*3 3.9 C 0 km/h
774 30-11-2011 10:47:01 4.2 C 5.93 g/m*3 4.2 C 0 km/h
775 30-11-2011 10:59:01 4.2 C 5.93 g/m*3 4.2 C 0 km/h
Sensor: Nr:Datum:Temp:Abs-Feuchte:Windchill:Wind:
Aussen-T/F 776 30-11-2011 11:11:02 4.3 C 5.97 g/m*3 4.3 C 0 km/h
777 30-11-2011 11:23:01 4.3 C 5.97 g/m*3 4.3 C 0 km/h
778 30-11-2011 11:35:01 4.9 C 6.21 g/m*3 4.9 C 0 km/h
779 30-11-2011 11:47:01 5.3 C 6.38 g/m*3 5.3 C 0 km/h
780 30-11-2011 11:59:01 5.5 C 6.39 g/m*3 5.5 C 0 km/h
781 30-11-2011 12:11:01 5.6 C 6.43 g/m*3 5.6 C 0 km/h
782 30-11-2011 12:23:02 6.2 C 6.55 g/m*3 6.2 C 0 km/h
783 30-11-2011 12:35:01 6.1 C 6.28 g/m*3 6.1 C 0 km/h
784 30-11-2011 12:47:02 5.8 C 6.02 g/m*3 5.8 C 0 km/h
785 30-11-2011 12:59:02 5.8 C 6.02 g/m*3 5.8 C 0 km/h
786 30-11-2011 13:11:01 6.2 C 6.03 g/m*3 6.2 C 0 km/h
787 30-11-2011 13:23:01 6.6 C 6.11 g/m*3 6.6 C 0 km/h
788 30-11-2011 13:35:01 7 C 6.12 g/m*3 7 C 0 km/h
789 30-11-2011 13:47:01 7.9 C 6.16 g/m*3 7.9 C 0 km/h
790 30-11-2011 13:59:02 8.4 C 6.02 g/m*3 8.4 C 0 km/h
791 30-11-2011 14:11:01 8.7 C 5.88 g/m*3 8.7 C 0 km/h
792 30-11-2011 14:23:01 8.5 C 5.64 g/m*3 8.5 C 0 km/h
793 30-11-2011 14:35:01 8.2 C 5.78 g/m*3 8.2 C 0 km/h
794 30-11-2011 14:47:02 8.2 C 5.86 g/m*3 8.2 C 0 km/h
795 30-11-2011 14:59:02 8.1 C 5.91 g/m*3 8.1 C 0 km/h
796 30-11-2011 15:11:01 7.8 C 5.88 g/m*3 7.8 C 0 km/h
797 30-11-2011 15:23:01 7.4 C 5.73 g/m*3 7.4 C 0 km/h
798 30-11-2011 15:35:02 7.1 C 5.69 g/m*3 7.1 C 0 km/h
799 30-11-2011 15:47:01 6.6 C 5.74 g/m*3 6.6 C 0 km/h
800 30-11-2011 15:59:01 6.2 C 5.74 g/m*3 6.2 C 0 km/h
Sensor: Nr:Datum:Temp:Abs-Feuchte:Windchill:Wind:
Aussen-T/F 801 30-11-2011 16:11:02 5.8 C 5.66 g/m*3 5.8 C 0 km/h
802 30-11-2011 16:23:01 5.3 C 5.54 g/m*3 5.3 C 0 km/h
803 30-11-2011 16:35:02 5.1 C 5.54 g/m*3 5.1 C 0 km/h
804 30-11-2011 16:47:01 4.8 C 5.57 g/m*3 4.8 C 0 km/h
805 30-11-2011 16:59:01 4.7 C 5.6 g/m*3 4.7 C 0 km/h
806 30-11-2011 17:11:02 4.3 C 5.45 g/m*3 4.3 C 0 km/h
807 30-11-2011 17:23:01 4.1 C 5.44 g/m*3 4.1 C 0 km/h
808 30-11-2011 17:35:01 4.2 C 5.48 g/m*3 4.2 C 0 km/h
809 30-11-2011 17:47:01 4.1 C 5.44 g/m*3 4.1 C 0 km/h
810 30-11-2011 17:59:01 3.5 C 5.29 g/m*3 3.5 C 0 km/h
811 30-11-2011 18:11:01 2.6 C 5.03 g/m*3 2.6 C 0 km/h
812 30-11-2011 18:23:02 1.7 C 4.74 g/m*3 1.7 C 0 km/h
813 30-11-2011 18:35:01 1.6 C 4.7 g/m*3 1.6 C 0 km/h
814 30-11-2011 18:47:02 1.5 C 4.73 g/m*3 1.5 C 0 km/h
815 30-11-2011 18:59:02 1.2 C 4.63 g/m*3 1.2 C 0 km/h
816 30-11-2011 19:11:01 1 C 4.57 g/m*3 1 C 0 km/h
817 30-11-2011 19:23:02 0.7 C 4.53 g/m*3 0.7 C 0 km/h
818 30-11-2011 19:35:01 0.6 C 4.49 g/m*3 0.6 C 0 km/h
819 30-11-2011 19:47:02 0.5 C 4.46 g/m*3 0.5 C 0 km/h
820 30-11-2011 19:59:02 0.1 C 4.34 g/m*3 0.1 C 0 km/h
821 30-11-2011 20:11:01 0 C 4.31 g/m*3 0 C 0 km/h
822 30-11-2011 20:23:01 0 C 4.36 g/m*3 0 C 0 km/h
823 30-11-2011 20:35:02 0.1 C 4.39 g/m*3 0.1 C 0 km/h
824 30-11-2011 20:47:01 0 C 4.36 g/m*3 0 C 0 km/h
825 30-11-2011 20:59:01 0.1 C 4.44 g/m*3 0.1 C 0 km/h
Sensor: Nr:Datum:Temp:Abs-Feuchte:Windchill:Wind:
Aussen-T/F 826 30-11-2011 21:11:01 -0.5 C 4.26 g/m*3 -0.5 C 0 km/h
827 30-11-2011 21:23:01 -0.5 C 4.26 g/m*3 -0.5 C 0 km/h
828 30-11-2011 21:35:02 -0.7 C 4.2 g/m*3 -0.7 C 0 km/h
829 30-11-2011 21:47:01 -0.6 C 4.23 g/m*3 -0.6 C 0 km/h
830 30-11-2011 21:59:01 -0.9 C 4.14 g/m*3 -0.9 C 0 km/h
831 30-11-2011 22:11:02 -0.6 C 4.23 g/m*3 -0.6 C 0 km/h
832 30-11-2011 22:23:01 -0.9 C 4.14 g/m*3 -0.9 C 0 km/h
833 30-11-2011 22:35:02 -0.7 C 4.25 g/m*3 -0.7 C 0 km/h
834 30-11-2011 22:47:01 0.1 C 4.49 g/m*3 0.1 C 0 km/h
835 30-11-2011 22:59:01 -0.5 C 4.31 g/m*3 -0.5 C 0 km/h
836 30-11-2011 23:11:02 -1.3 C 4.07 g/m*3 -1.3 C 0 km/h
837 30-11-2011 23:23:01 -1.2 C 4.1 g/m*3 -1.2 C 0 km/h
838 30-11-2011 23:35:01 -1.7 C 3.96 g/m*3 -1.7 C 0 km/h
839 30-11-2011 23:47:01 -1.2 C 4.1 g/m*3 -1.2 C 0 km/h
840 30-11-2011 23:59:01 -1.3 C 4.07 g/m*3 -1.3 C 0 km/h

Legende:
   Min
   Max


Maximal/Minimal-Werte vom 24.11.2011 - 30.11.2011

Sensor Min Max Avg
Temp
(Aussen-T/F)
-3 °C
25-11-2011  03:57:04
9.6 °C
27-11-2011  13:34:02
3.53 °C
Abs-Feuchte
(Aussen-T/F)
3.56 g/m*3
25-11-2011  05:33:04
7.49 g/m*3
30-11-2011  00:35:01
5.2 g/m*3
Windchill
(Aussen-T/F)
-3 C
25-11-2011  03:57:04
9.6 C
27-11-2011  13:34:02
3.52 C

Die Daten stammen von einer Davis Vantage Pro 2 Wetter-Station und werden unter Linux mit der Software wview2wettercgi und aufbereitet. Alle Angaben erfolgen ohne Gewähr für ihre Vollständigkeit oder Richtigkeit.
Kontakt: Rainer Krienke krienke@uni-koblenz.de . Meine Webseiten an der Uni Koblenz oder privat.
Version: $Revision: 0.78 $